Time;durP1;ratioP1;P1;durP2;ratioP2;P2;SDS_P1;SDS_P2;PMS_P1;PMS_P2;Temp;Humidity;BMP_temperature;BMP_pressure;BME280_temperature;BME280_humidity;BME280_pressure;Samples;Min_cycle;Max_cycle;Signal;HPM_P1;HPM_P2
2021/11/02 00:00:27;;;;;;;;;;;;;;;;;;5068745;28;20044;-55
2021/11/02 00:02:54;;;;;;;;;;;;;;;;;;5062004;28;20036;-55
2021/11/02 00:05:21;;;;;;;;;;;;;;;;;;5067469;28;19934;-58
2021/11/02 00:07:48;;;;;;;;;;;;;;;;;;5065002;28;19924;-58
2021/11/02 00:10:15;;;;;;;;;;;;;;;;;;5070092;28;20309;-56
2021/11/02 00:12:42;;;;;;;;;;;;;;;;;;5062177;28;20282;-58
2021/11/02 00:15:09;;;;;;;;;;;;;;;;;;5070124;28;20032;-53
2021/11/02 00:17:38;;;;;;;;;;;;;;;;;;5064871;28;19929;-58
2021/11/02 00:20:05;;;;;;;;;;;;;;;;;;5069262;28;20036;-57
2021/11/02 00:22:35;;;;;;;;;;;;;;;;;;5063898;28;19933;-54
2021/11/02 00:25:08;;;;;;;;;;;;;;;;;;5061607;28;19925;-57
2021/11/02 00:27:35;;;;;;;;;;;;;;;;;;5069038;28;19936;-57
2021/11/02 00:30:02;;;;;;;;;;;;;;;;;;5065795;28;20007;-57
2021/11/02 00:32:29;;;;;;;;;;;;;;;;;;5063835;28;19925;-51
2021/11/02 00:34:57;;;;;;;;;;;;;;;;;;5062302;28;20358;-57
2021/11/02 00:37:24;;;;;;;;;;;;;;;;;;5066175;28;20006;-53
2021/11/02 00:39:53;;;;;;;;;;;;;;;;;;5065810;28;19935;-58
2021/11/02 00:42:20;;;;;;;;;;;;;;;;;;5065382;28;19928;-55
2021/11/02 00:44:55;;;;;;;;;;;;;;;;;;5061518;28;19924;-53
2021/11/02 00:47:24;;;;;;;;;;;;;;;;;;5060661;28;19938;-59
2021/11/02 00:49:51;;;;;;;;;;;;;;;;;;5060747;28;19924;-59
2021/11/02 00:52:18;;;;;;;;;;;;;;;;;;5059015;28;19947;-57
2021/11/02 00:54:45;;;;;;;;;;;;;;;;;;5067183;28;19972;-56
2021/11/02 00:57:12;;;;;;;;;;;;;;;;;;5067772;28;20023;-57
2021/11/02 00:59:39;;;;;;;;;;;;;;;;;;5058829;28;19925;-56
2021/11/02 01:02:08;;;;;;;;;;;;;;;;;;5062872;28;19925;-60
2021/11/02 01:04:35;;;;;;;;;;;;;;;;;;5059023;28;19925;-58
2021/11/02 01:07:02;;;;;;;;;;;;;;;;;;5060541;28;19931;-57
2021/11/02 01:09:29;;;;;;;;;;;;;;;;;;5070333;28;20511;-55
2021/11/02 01:11:56;;;;;;;;;;;;;;;;;;5067560;28;19924;-58
2021/11/02 01:14:23;;;;;;;;;;;;;;;;;;5063796;28;19925;-57
2021/11/02 01:16:50;;;;;;;;;;;;;;;;;;5065077;28;19936;-55
2021/11/02 01:19:17;;;;;;;;;;;;;;;;;;5062002;28;19925;-59
2021/11/02 01:21:44;;;;;;;;;;;;;;;;;;5067752;28;20376;-52
2021/11/02 01:24:11;;;;;;;;;;;;;;;;;;5065085;28;20285;-58
2021/11/02 01:26:38;;;;;;;;;;;;;;;;;;5062807;28;19986;-59
2021/11/02 01:29:05;;;;;;;;;;;;;;;;;;5068799;28;20135;-57
2021/11/02 01:31:32;;;;;;;;;;;;;;;;;;5061087;28;19936;-56
2021/11/02 01:33:59;;;;;;;;;;;;;;;;;;5065403;28;20357;-56
2021/11/02 01:36:27;;;;;;;;;;;;;;;;;;5060421;28;19929;-59
2021/11/02 01:38:54;;;;;;;;;;;;;;;;;;5064244;28;19968;-53
2021/11/02 01:41:25;;;;;;;;;;;;;;;;;;5061570;28;19935;-58
2021/11/02 01:43:52;;;;;;;;;;;;;;;;;;5061310;28;20399;-59
2021/11/02 01:46:19;;;;;;;;;;;;;;;;;;5068424;28;20347;-58
2021/11/02 01:48:46;;;;;;;;;;;;;;;;;;5064328;28;19932;-57
2021/11/02 01:51:13;;;;;;;;;;;;;;;;;;5065003;28;19931;-57
2021/11/02 01:53:40;;;;;;;;;;;;;;;;;;5066740;28;19935;-58
2021/11/02 01:56:08;;;;;;;;;;;;;;;;;;5063346;28;19925;-56
2021/11/02 01:58:35;;;;;;;;;;;;;;;;;;5060450;28;19951;-55
2021/11/02 02:01:02;;;;;;;;;;;;;;;;;;5057510;28;19932;-57
2021/11/02 02:03:29;;;;;;;;;;;;;;;;;;5058005;28;19925;-56
2021/11/02 02:05:56;;;;;;;;;;;;;;;;;;5057767;28;19931;-54
2021/11/02 02:08:23;;;;;;;;;;;;;;;;;;5065688;28;19925;-57
2021/11/02 02:10:50;;;;;;;;;;;;;;;;;;5064374;28;19928;-57
2021/11/02 02:13:17;;;;;;;;;;;;;;;;;;5062299;28;19924;-59
2021/11/02 02:15:44;;;;;;;;;;;;;;;;;;5068129;28;19924;-55
2021/11/02 02:18:11;;;;;;;;;;;;;;;;;;5064413;28;19956;-54
2021/11/02 02:20:38;;;;;;;;;;;;;;;;;;5063275;28;19925;-53
2021/11/02 02:23:06;;;;;;;;;;;;;;;;;;5059028;28;19936;-56
2021/11/02 02:25:33;;;;;;;;;;;;;;;;;;5062325;28;20004;-57
2021/11/02 02:28:00;;;;;;;;;;;;;;;;;;5063334;28;19929;-56
2021/11/02 02:30:27;;;;;;;;;;;;;;;;;;5063354;28;20407;-58
2021/11/02 02:32:54;;;;;;;;;;;;;;;;;;5062894;28;20388;-51
2021/11/02 02:35:22;;;;;;;;;;;;;;;;;;5062364;28;19932;-55
2021/11/02 02:37:49;;;;;;;;;;;;;;;;;;5065961;28;19929;-58
2021/11/02 02:40:16;;;;;;;;;;;;;;;;;;5062413;28;19925;-59
2021/11/02 02:42:43;;;;;;;;;;;;;;;;;;5058207;28;19924;-56
2021/11/02 02:45:11;;;;;;;;;;;;;;;;;;5057910;28;19971;-55
2021/11/02 02:47:38;;;;;;;;;;;;;;;;;;5064529;28;19931;-56
2021/11/02 02:50:05;;;;;;;;;;;;;;;;;;5066267;28;19928;-55
2021/11/02 02:52:31;;;;;;;;;;;;;;;;;;5063722;28;19939;-56
2021/11/02 02:54:58;;;;;;;;;;;;;;;;;;5068412;28;20319;-53
2021/11/02 02:57:26;;;;;;;;;;;;;;;;;;5063294;28;19940;-56
2021/11/02 02:59:53;;;;;;;;;;;;;;;;;;5059681;28;20562;-57
2021/11/02 03:02:20;;;;;;;;;;;;;;;;;;5054640;28;19933;-54
2021/11/02 03:04:48;;;;;;;;;;;;;;;;;;5057514;28;20449;-55
2021/11/02 03:07:14;;;;;;;;;;;;;;;;;;5061823;28;19924;-55
2021/11/02 03:09:42;;;;;;;;;;;;;;;;;;5060349;28;19924;-54
2021/11/02 03:12:09;;;;;;;;;;;;;;;;;;5062764;28;19928;-56
2021/11/02 03:14:41;;;;;;;;;;;;;;;;;;5064364;28;20295;-56
2021/11/02 03:17:09;;;;;;;;;;;;;;;;;;5066427;28;20490;-58
2021/11/02 03:20:12;;;;;;;;;;;;;;;;;;5061848;28;19970;-58
2021/11/02 03:50:15;;;;;;;;;;;;;;;;;;5050927;28;19947;-67
2021/11/02 03:55:27;;;;;;;;;;;;;;;;;;5033591;28;19935;-67
2021/11/02 03:57:57;;;;;;;;;;;;;;;;;;5034674;28;19932;-67
2021/11/02 04:30:59;;;;;;;;;;;;;;;;;;5069877;28;19919;-68
2021/11/02 05:07:19;;;;;;;;;;;;;;;;;;5059935;28;19920;-66
2021/11/02 05:48:19;;;;;;;;;;;;;;;;;;5069486;28;19959;-66
2021/11/02 05:53:57;;;;;;;;;;;;;;;;;;5067612;28;20324;-67
2021/11/02 05:56:28;;;;;;;;;;;;;;;;;;5072310;28;19929;-67
2021/11/02 05:59:10;;;;;;;;;;;;;;;;;;5070202;28;20384;-67
2021/11/02 06:01:48;;;;;;;;;;;;;;;;;;5060821;28;21158;-67
2021/11/02 06:07:03;;;;;;;;;;;;;;;;;;5064600;28;20400;-66
2021/11/02 06:09:36;;;;;;;;;;;;;;;;;;5056510;28;19924;-66
2021/11/02 06:23:38;;;;;;;;;;;;;;;;;;5070441;28;19967;-67
2021/11/02 06:28:50;;;;;;;;;;;;;;;;;;5067434;28;20434;-67
2021/11/02 06:31:20;;;;;;;;;;;;;;;;;;5063136;28;20366;-68
2021/11/02 06:33:54;;;;;;;;;;;;;;;;;;5067664;28;20311;-67
2021/11/02 06:36:39;;;;;;;;;;;;;;;;;;5068707;28;19970;-67
2021/11/02 06:42:18;;;;;;;;;;;;;;;;;;5061128;28;20260;-67
2021/11/02 06:50:31;;;;;;;;;;;;;;;;;;5066299;28;19932;-67
2021/11/02 06:53:09;;;;;;;;;;;;;;;;;;5066015;28;20304;-67
2021/11/02 06:55:56;;;;;;;;;;;;;;;;;;5068067;28;19920;-68
2021/11/02 06:58:40;;;;;;;;;;;;;;;;;;5069098;28;20452;-67
2021/11/02 07:17:43;;;;;;;;;;;;;;;;;;5062028;28;19923;-68
2021/11/02 07:20:25;;;;;;;;;;;;;;;;;;5058450;28;20347;-67
2021/11/02 07:22:59;;;;;;;;;;;;;;;;;;5068180;28;19925;-67
2021/11/02 07:25:41;;;;;;;;;;;;;;;;;;5063205;28;19929;-68
2021/11/02 08:45:07;;;;;;;;;;;;;;;;;;5065407;28;20318;-67
2021/11/02 08:47:36;;;;;;;;;;;;;;;;;;5068986;28;19924;-67
2021/11/02 08:50:03;;;;;;;;;;;;;;;;;;5064791;28;19948;-65
2021/11/02 08:52:32;;;;;;;;;;;;;;;;;;5068802;28;19931;-66
2021/11/02 08:54:59;;;;;;;;;;;;;;;;;;5056179;28;19931;-67
2021/11/02 08:57:27;;;;;;;;;;;;;;;;;;5073221;28;19932;-65
2021/11/02 08:59:54;;;;;;;;;;;;;;;;;;5061082;28;20284;-66
2021/11/02 09:02:21;;;;;;;;;;;;;;;;;;5069793;28;19924;-66
2021/11/02 09:04:48;;;;;;;;;;;;;;;;;;5067541;28;19924;-66
2021/11/02 09:07:15;;;;;;;;;;;;;;;;;;5070333;28;19932;-67
2021/11/02 09:09:42;;;;;;;;;;;;;;;;;;5061041;28;20006;-67
2021/11/02 09:12:09;;;;;;;;;;;;;;;;;;5066684;28;20384;-67
2021/11/02 09:14:36;;;;;;;;;;;;;;;;;;5064030;28;20319;-67
2021/11/02 09:17:03;;;;;;;;;;;;;;;;;;5067514;28;19928;-67
2021/11/02 09:19:30;;;;;;;;;;;;;;;;;;5071668;28;20372;-67
2021/11/02 09:21:57;;;;;;;;;;;;;;;;;;5068408;28;19931;-67
2021/11/02 09:24:24;;;;;;;;;;;;;;;;;;5072475;28;19924;-67
2021/11/02 09:26:51;;;;;;;;;;;;;;;;;;5071163;28;19975;-67
2021/11/02 09:29:18;;;;;;;;;;;;;;;;;;5066990;28;19928;-67
2021/11/02 09:31:45;;;;;;;;;;;;;;;;;;5064828;28;19929;-67
2021/11/02 09:34:12;;;;;;;;;;;;;;;;;;5067032;28;19924;-67
2021/11/02 09:36:41;;;;;;;;;;;;;;;;;;5074720;28;20025;-67
2021/11/02 09:39:08;;;;;;;;;;;;;;;;;;5070594;28;20327;-68
2021/11/02 09:41:35;;;;;;;;;;;;;;;;;;5075612;28;20407;-67
2021/11/02 09:44:05;;;;;;;;;;;;;;;;;;5074180;28;19935;-67
2021/11/02 09:46:33;;;;;;;;;;;;;;;;;;5069245;28;20342;-68
2021/11/02 09:49:00;;;;;;;;;;;;;;;;;;5069670;28;19924;-68
2021/11/02 09:51:27;;;;;;;;;;;;;;;;;;5074993;28;19924;-66
2021/11/02 09:53:55;;;;;;;;;;;;;;;;;;5073456;28;19924;-66
2021/11/02 09:56:23;;;;;;;;;;;;;;;;;;5079899;28;19931;-66
2021/11/02 09:58:50;;;;;;;;;;;;;;;;;;5079083;28;19931;-65
2021/11/02 10:01:17;;;;;;;;;;;;;;;;;;5078091;28;19924;-68
2021/11/02 10:03:46;;;;;;;;;;;;;;;;;;5071174;28;19931;-67
2021/11/02 10:06:18;;;;;;;;;;;;;;;;;;5069682;28;19925;-66
2021/11/02 10:08:45;;;;;;;;;;;;;;;;;;5063611;28;19935;-66
2021/11/02 10:11:12;;;;;;;;;;;;;;;;;;5067664;28;20431;-67
2021/11/02 10:13:41;;;;;;;;;;;;;;;;;;5062500;28;20305;-66
2021/11/02 10:16:11;;;;;;;;;;;;;;;;;;5065786;28;19924;-67
2021/11/02 10:18:39;;;;;;;;;;;;;;;;;;5070034;28;19931;-67
2021/11/02 10:21:06;;;;;;;;;;;;;;;;;;5070002;28;19928;-66
2021/11/02 10:23:33;;;;;;;;;;;;;;;;;;5067465;28;19924;-67
2021/11/02 10:26:00;;;;;;;;;;;;;;;;;;5077538;28;19931;-67
2021/11/02 10:28:27;;;;;;;;;;;;;;;;;;5071337;28;19928;-67
2021/11/02 10:30:54;;;;;;;;;;;;;;;;;;5067255;28;19978;-67
2021/11/02 10:33:21;;;;;;;;;;;;;;;;;;5072634;28;19931;-67
2021/11/02 10:35:48;;;;;;;;;;;;;;;;;;5069730;28;20444;-66
2021/11/02 10:38:15;;;;;;;;;;;;;;;;;;5072631;28;19928;-67
2021/11/02 10:40:47;;;;;;;;;;;;;;;;;;5065428;28;19925;-68
2021/11/02 10:43:16;;;;;;;;;;;;;;;;;;5062742;28;19924;-66
2021/11/02 10:45:52;;;;;;;;;;;;;;;;;;5064548;28;19929;-67
2021/11/02 10:48:19;;;;;;;;;;;;;;;;;;5067078;28;19925;-66
2021/11/02 10:50:46;;;;;;;;;;;;;;;;;;5067368;28;19924;-67
2021/11/02 10:53:13;;;;;;;;;;;;;;;;;;5068239;28;19943;-66
2021/11/02 10:55:40;;;;;;;;;;;;;;;;;;5068289;28;19932;-67
2021/11/02 10:58:07;;;;;;;;;;;;;;;;;;5068126;28;19970;-66
2021/11/02 11:00:34;;;;;;;;;;;;;;;;;;5065545;28;20581;-66
2021/11/02 11:03:01;;;;;;;;;;;;;;;;;;5059211;28;19928;-66
2021/11/02 11:05:28;;;;;;;;;;;;;;;;;;5064745;28;19925;-66
2021/11/02 11:07:55;;;;;;;;;;;;;;;;;;5071838;28;19939;-66
2021/11/02 11:10:22;;;;;;;;;;;;;;;;;;5063186;28;20371;-67
2021/11/02 11:12:50;;;;;;;;;;;;;;;;;;5081501;28;20006;-67
2021/11/02 11:15:16;;;;;;;;;;;;;;;;;;5073087;28;20021;-67
2021/11/02 11:17:43;;;;;;;;;;;;;;;;;;5069621;28;19931;-67
2021/11/02 11:20:10;;;;;;;;;;;;;;;;;;5076547;28;19925;-68
2021/11/02 11:22:38;;;;;;;;;;;;;;;;;;5073417;28;19952;-67
2021/11/02 11:25:05;;;;;;;;;;;;;;;;;;5071031;28;19924;-67
2021/11/02 11:27:33;;;;;;;;;;;;;;;;;;5078754;28;19924;-67
2021/11/02 11:30:05;;;;;;;;;;;12.30;99.90;;;;;;5075190;28;19924;-67
2021/11/02 11:32:34;;;;;;;;;;;12.10;99.90;;;;;;5067864;28;19924;-66
2021/11/02 11:35:02;;;;;;;;;;;11.90;99.90;;;;;;5063915;28;19970;-67
2021/11/02 11:37:29;;;;;;;;;;;11.50;99.90;;;;;;5068504;28;20398;-67
2021/11/02 11:40:00;;;;;;;;;;;11.50;99.90;;;;;;5069192;28;19937;-68
2021/11/02 11:42:29;;;;;;;;;;;11.30;99.90;;;;;;5068915;28;20491;-67
2021/11/02 11:44:59;;;;;;;;;;;11.30;99.90;;;;;;5069374;28;19925;-68
2021/11/02 11:47:27;;;;;;;;;;;11.10;99.90;;;;;;5070666;28;19928;-68
2021/11/02 11:49:54;;;;;;;;;;;11.10;99.90;;;;;;5063664;28;19929;-68
2021/11/02 11:52:21;;;;;;;;;;;;;;;;;;5074417;28;19932;-68
2021/11/02 11:54:49;;;;;;;;;;;;;;;;;;5068274;28;19952;-68
2021/11/02 11:57:16;;;;;;;;;;;;;;;;;;5066444;28;19940;-67
2021/11/02 11:59:43;;;;;;;;;;;;;;;;;;5071880;28;19924;-68
2021/11/02 12:02:10;;;;;;;;;;;;;;;;;;5070506;28;19935;-68
2021/11/02 12:04:37;;;;;;;;;;;;;;;;;;5074902;28;19924;-68
2021/11/02 12:07:04;;;;;;;;;;;;;;;;;;5069516;28;19931;-68
2021/11/02 12:09:31;;;;;;;;;;;;;;;;;;5070641;28;20361;-68
2021/11/02 12:11:58;;;;;;;;;;;;;;;;;;5068796;28;19925;-68
2021/11/02 12:14:25;;;;;;;;;;;;;;;;;;5073854;28;19964;-68
2021/11/02 12:16:52;;;;;;;;;;;;;;;;;;5073144;28;20448;-68
2021/11/02 12:19:20;;;;;;;;;;;;;;;;;;5069218;28;19924;-68
2021/11/02 12:21:49;;;;;;;;;;;;;;;;;;5066807;28;19980;-68
2021/11/02 12:24:16;;;;;;;;;;;;;;;;;;5070295;28;19987;-68
2021/11/02 12:26:43;;;;;;;;;;;;;;;;;;5080497;28;19925;-68
2021/11/02 12:29:10;;;;;;;;;;;;;;;;;;5075191;28;19932;-68
2021/11/02 12:31:38;;;;;;;;;;;;;;;;;;5073939;28;19925;-68
2021/11/02 12:34:05;;;;;;;;;;;;;;;;;;5071638;28;19936;-68
2021/11/02 12:36:32;;;;;;;;;;;;;;;;;;5072052;28;19925;-68
2021/11/02 12:38:58;;;;;;;;;;;;;;;;;;5073972;28;19980;-68
2021/11/02 12:41:25;;;;;;;;;;;;;;;;;;5072493;28;19990;-68
2021/11/02 12:43:52;;;;;;;;;;;;;;;;;;5075617;28;19938;-68
2021/11/02 12:46:19;;;;;;;;;;;;;;;;;;5073485;28;19931;-68
2021/11/02 12:48:46;;;;;;;;;;;;;;;;;;5073340;28;19960;-68
2021/11/02 12:51:15;;;;;;;;;;;;;;;;;;5070117;28;19925;-68
2021/11/02 12:53:43;;;;;;;;;;;;;;;;;;5075391;28;20015;-68
2021/11/02 12:56:11;;;;;;;;;;;;;;;;;;5083076;28;19963;-68
2021/11/02 12:58:38;;;;;;;;;;;;;;;;;;5078467;28;19992;-68
2021/11/02 13:01:05;;;;;;;;;;;;;;;;;;5081418;28;19931;-68
2021/11/02 13:03:34;;;;;;;;;;;;;;;;;;5079910;28;19947;-68
2021/11/02 13:06:02;;;;;;;;;;;;;;;;;;5080734;28;19939;-69
2021/11/02 13:08:30;;;;;;;;;;;;;;;;;;5082421;28;19924;-68
2021/11/02 13:10:58;;;;;;;;;;;;;;;;;;5074417;28;19992;-68
2021/11/02 13:13:27;;;;;;;;;;;;;;;;;;5075311;28;19925;-68
2021/11/02 13:15:54;;;;;;;;;;;;;;;;;;5076333;28;19991;-69
2021/11/02 13:18:21;;;;;;;;;;;;;;;;;;5075004;28;20023;-68
2021/11/02 13:20:50;;;;;;;;;;;;;;;;;;5072052;28;19931;-68
2021/11/02 13:23:18;;;;;;;;;;;;;;;;;;5069551;28;19959;-68
2021/11/02 13:25:45;;;;;;;;;;;;;;;;;;5068043;28;20015;-68
2021/11/02 13:28:12;;;;;;;;;;;;;;;;;;5070942;28;20277;-67
2021/11/02 13:30:39;;;;;;;;;;;;;;;;;;5061505;28;19947;-66
2021/11/02 13:33:06;;;;;;;;;;;;;;;;;;5062773;28;19935;-66
2021/11/02 13:35:33;;;;;;;;;;;;;;;;;;5067350;28;20007;-67
2021/11/02 13:38:00;;;;;;;;;;;;;;;;;;5067506;28;20410;-67
2021/11/02 13:40:27;;;;;;;;;;;;;;;;;;5063452;28;19925;-67
2021/11/02 13:42:53;;;;;;;;;;;;;;;;;;5066490;28;19933;-67
2021/11/02 13:45:22;;;;;;;;;;;;;;;;;;5060926;28;19928;-67
2021/11/02 13:47:49;;;;;;;;;;;;;;;;;;5063527;28;19924;-67
2021/11/02 13:50:16;;;;;;;;;;;;;;;;;;5061261;28;19928;-67
2021/11/02 13:52:43;;;;;;;;;;;;;;;;;;5066475;28;19929;-67
2021/11/02 13:55:10;;;;;;;;;;;;;;;;;;5061578;28;20397;-67
2021/11/02 13:57:37;;;;;;;;;;;;;;;;;;5061188;28;19931;-67
2021/11/02 14:00:04;;;;;;;;;;;;;;;;;;5063507;28;20000;-67
2021/11/02 14:02:31;;;;;;;;;;;;;;;;;;5061602;28;19925;-67
2021/11/02 14:04:58;;;;;;;;;;;;;;;;;;5062380;28;20272;-67
2021/11/02 14:07:25;;;;;;;;;;;;;;;;;;5067363;28;19924;-67
2021/11/02 14:09:52;;;;;;;;;;;;;;;;;;5058905;28;20292;-67
2021/11/02 14:12:19;;;;;;;;;;;;;;;;;;5057986;28;19931;-67
2021/11/02 14:14:46;;;;;;;;;;;;;;;;;;5060845;28;19928;-67
2021/11/02 14:17:13;;;;;;;;;;;;;;;;;;5059953;28;19924;-67
2021/11/02 14:19:40;;;;;;;;;;;;;;;;;;5065962;28;19963;-67
2021/11/02 14:22:07;;;;;;;;;;;;;;;;;;5066206;28;19925;-67
2021/11/02 14:24:34;;;;;;;;;;;;;;;;;;5062601;28;19925;-67
2021/11/02 14:27:01;;;;;;;;;;;;;;;;;;5054584;28;20028;-68
2021/11/02 14:29:28;;;;;;;;;;;;;;;;;;5060473;28;19925;-67
2021/11/02 14:31:59;;;;;;;;;;;;;;;;;;5066714;28;20576;-68
2021/11/02 14:34:26;;;;;;;;;;;;;;;;;;5069421;28;19928;-67
2021/11/02 14:36:53;;;;;;;;;;;;;;;;;;5063345;28;20054;-67
2021/11/02 14:39:20;;;;;;;;;;;;;;;;;;5063337;28;19928;-67
2021/11/02 14:41:47;;;;;;;;;;;;;;;;;;5060816;28;19929;-68
2021/11/02 14:44:14;;;;;;;;;;;;;;;;;;5060289;28;20434;-67
2021/11/02 14:46:41;;;;;;;;;;;;;;;;;;5060978;28;20303;-67
2021/11/02 14:49:08;;;;;;;;;;;;;;;;;;5066547;28;19954;-68
2021/11/02 14:51:35;;;;;;;;;;;;;;;;;;5066371;28;19931;-67
2021/11/02 14:54:02;;;;;;;;;;;;;;;;;;5056941;28;20092;-67
2021/11/02 14:56:29;;;;;;;;;;;;;;;;;;5065780;28;19931;-67
2021/11/02 14:58:56;;;;;;;;;;;;;;;;;;5056716;28;20546;-68
2021/11/02 15:01:23;;;;;;;;;;;;;;;;;;5064471;28;19967;-67
2021/11/02 15:03:50;;;;;;;;;;;;;;;;;;5062598;28;19931;-67
2021/11/02 15:06:17;;;;;;;;;;;;;;;;;;5060298;28;20388;-68
2021/11/02 15:08:44;;;;;;;;;;;;;;;;;;5065182;28;19924;-68
2021/11/02 15:11:11;;;;;;;;;;;;;;;;;;5060517;28;20769;-68
2021/11/02 15:13:38;;;;;;;;;;;;;;;;;;5053723;28;19932;-67
2021/11/02 15:16:05;;;;;;;;;;;;;;;;;;5067822;28;20019;-67
2021/11/02 15:18:32;;;;;;;;;;;;;;;;;;5067129;28;19935;-67
2021/11/02 15:21:01;;;;;;;;;;;;;;;;;;5063398;28;19924;-68
2021/11/02 15:23:28;;;;;;;;;;;;;;;;;;5066658;28;19936;-68
2021/11/02 15:25:55;;;;;;;;;;;;;;;;;;5062217;28;19925;-67
2021/11/02 15:28:22;;;;;;;;;;;;;;;;;;5058239;28;19925;-68
2021/11/02 15:30:50;;;;;;;;;;;;;;;;;;5064224;28;19931;-67
2021/11/02 15:33:17;;;;;;;;;;;;;;;;;;5061453;28;19963;-67
2021/11/02 15:35:44;;;;;;;;;;;;;;;;;;5062930;28;20328;-67
2021/11/02 15:38:11;;;;;;;;;;;;;;;;;;5057781;28;19933;-68
2021/11/02 15:40:39;;;;;;;;;;;;;;;;;;5058559;28;19935;-68
2021/11/02 15:43:06;;;;;;;;;;;;;;;;;;5080607;22;19960;-60
2021/11/02 15:45:35;;;;;;;;;;;;;;;;;;5080579;28;19924;-57
2021/11/02 15:48:02;;;;;;;;;;;;;;;;;;5083019;28;20027;-61
2021/11/02 15:50:29;;;;;;;;;;;;;;;;;;5081043;28;19929;-61
2021/11/02 15:52:56;;;;;;;;;;;;;;;;;;5087050;28;19924;-61
2021/11/02 15:55:23;;;;;;;;;;;;;;;;;;5079534;28;19928;-56
2021/11/02 15:57:53;;;;;;;;;;;;;;;;;;5078745;28;20265;-57
2021/11/02 16:00:20;;;;;;;;;;;;;;;;;;5084300;28;19963;-60
2021/11/02 16:02:47;;;;;;;;;;;;;;;;;;5080230;28;20259;-58
2021/11/02 16:05:14;;;;;;;;;;;;;;;;;;5081751;28;20082;-57
2021/11/02 16:07:41;;;;;;;;;;;;;;;;;;5081332;28;20019;-58
2021/11/02 16:10:08;;;;;;;;;;;;;;;;;;5082795;28;19924;-56
2021/11/02 16:12:36;;;;;;;;;;;;;;;;;;5077284;28;19975;-61
2021/11/02 16:15:02;;;;;;;;;;;;;;;;;;5080218;28;19924;-58
2021/11/02 16:17:29;;;;;;;;;;;;;;;;;;5083281;28;19924;-57
2021/11/02 16:19:56;;;;;;;;;;;;;;;;;;5077814;28;19925;-57
2021/11/02 16:22:23;;;;;;;;;;;;;;;;;;5084865;28;20405;-59
2021/11/02 16:24:50;;;;;;;;;;;;;;;;;;5080426;28;19931;-58
2021/11/02 16:27:17;;;;;;;;;;;;;;;;;;5082765;28;19925;-55
2021/11/02 16:29:45;;;;;;;;;;;;;;;;;;5085001;28;20007;-56
2021/11/02 16:32:12;;;;;;;;;;;;;;;;;;5081335;28;20402;-58
2021/11/02 16:34:39;;;;;;;;;;;;;;;;;;5083099;28;19924;-57
2021/11/02 16:37:06;;;;;;;;;;;;;;;;;;5080806;28;19928;-58
2021/11/02 16:39:32;;;;;;;;;;;;;;;;;;5081112;28;20019;-58
2021/11/02 16:41:59;;;;;;;;;;;;;;;;;;5083972;28;19924;-61
2021/11/02 16:44:26;;;;;;;;;;;;;;;;;;5085932;28;19930;-61
2021/11/02 16:46:53;;;;;;;;;;;;;;;;;;5089644;28;20406;-61
2021/11/02 16:49:20;;;;;;;;;;;;;;;;;;5088025;28;20315;-61
2021/11/02 16:51:47;;;;;;;;;;;;;;;;;;5088585;28;19963;-60
2021/11/02 16:54:14;;;;;;;;;;;;;;;;;;5091384;28;19923;-60
2021/11/02 16:56:41;;;;;;;;;;;;;;;;;;5085101;28;19934;-61
2021/11/02 16:59:08;;;;;;;;;;;;;;;;;;5087582;28;19963;-61
2021/11/02 17:01:35;;;;;;;;;;;;;;;;;;5084781;28;20434;-61
2021/11/02 17:04:02;;;;;;;;;;;;;;;;;;5087509;28;19924;-60
2021/11/02 17:06:29;;;;;;;;;;;;;;;;;;5086326;28;19927;-61
2021/11/02 17:08:56;;;;;;;;;;;;;;;;;;5085782;28;20392;-62
2021/11/02 17:11:23;;;;;;;;;;;;;;;;;;5085811;28;19932;-63
2021/11/02 17:13:50;;;;;;;;;;;;;;;;;;5087398;28;19931;-60
2021/11/02 17:16:17;;;;;;;;;;;;;;;;;;5083249;28;19924;-61
2021/11/02 17:18:45;;;;;;;;;;;;;;;;;;5082326;28;19924;-61
2021/11/02 17:21:12;;;;;;;;;;;;;;;;;;5080668;28;19972;-63
2021/11/02 17:23:38;;;;;;;;;;;;;;;;;;5083129;28;19934;-59
2021/11/02 17:26:06;;;;;;;;;;;;;;;;;;5086363;28;19938;-60
2021/11/02 17:28:33;;;;;;;;;;;;;;;;;;5086507;28;19928;-60
2021/11/02 17:31:00;;;;;;;;;;;;;;;;;;5085063;28;19924;-60
2021/11/02 17:33:27;;;;;;;;;;;;;;;;;;5083191;28;20002;-60
2021/11/02 17:35:54;;;;;;;;;;;;;;;;;;5090033;28;19928;-60
2021/11/02 17:38:21;;;;;;;;;;;;;;;;;;5088779;28;19930;-59
2021/11/02 17:40:48;;;;;;;;;;;;;;;;;;5084988;28;20273;-60
2021/11/02 17:43:15;;;;;;;;;;;;;;;;;;5088538;28;19982;-60
2021/11/02 17:45:42;;;;;;;;;;;;;;;;;;5081901;28;19924;-61
2021/11/02 17:48:13;;;;;;;;;;;;;;;;;;5087078;28;20189;-60
2021/11/02 17:50:40;;;;;;;;;;;;;;;;;;5087957;28;19954;-61
2021/11/02 17:53:07;;;;;;;;;;;;;;;;;;5090464;28;19932;-61
2021/11/02 17:55:34;;;;;;;;;;;;;;;;;;5088180;28;19938;-61
2021/11/02 17:58:01;;;;;;;;;;;;;;;;;;5087024;28;20011;-61
2021/11/02 18:00:28;;;;;;;;;;;;;;;;;;5088863;28;19986;-59
2021/11/02 18:02:55;;;;;;;;;;;;;;;;;;5094078;28;19924;-61
2021/11/02 18:05:22;;;;;;;;;;;;;;;;;;5088738;28;19924;-61
2021/11/02 18:07:49;;;;;;;;;;;;;;;;;;5087257;28;19928;-61
2021/11/02 18:10:15;;;;;;;;;;;;;;;;;;5088461;28;20242;-61
2021/11/02 18:12:42;;;;;;;;;;;;;;;;;;5091830;28;19924;-61
2021/11/02 18:15:09;;;;;;;;;;;;;;;;;;5088273;28;20298;-61
2021/11/02 18:17:36;;;;;;;;;;;;;;;;;;5085746;28;19924;-60
2021/11/02 18:20:03;;;;;;;;;;;;;;;;;;5088223;28;19925;-61
2021/11/02 18:22:30;;;;;;;;;;;;;;;;;;5086243;28;19928;-60
2021/11/02 18:24:57;;;;;;;;;;;;;;;;;;5090440;28;19925;-61
2021/11/02 18:27:24;;;;;;;;;;;;;;;;;;5087915;28;19924;-60
2021/11/02 18:29:51;;;;;;;;;;;;;;;;;;5091942;28;20027;-59
2021/11/02 18:32:18;;;;;;;;;;;;;;;;;;5088365;28;20250;-61
2021/11/02 18:34:45;;;;;;;;;;;;;;;;;;5092053;28;19930;-62
2021/11/02 18:37:12;;;;;;;;;;;;;;;;;;5092739;28;20285;-60
2021/11/02 18:39:39;;;;;;;;;;;;;;;;;;5087620;28;19932;-62
2021/11/02 18:42:06;;;;;;;;;;;;;;;;;;5083754;28;20023;-60
2021/11/02 18:44:33;;;;;;;;;;;;;;;;;;5092135;28;20292;-60
2021/11/02 18:47:00;;;;;;;;;;;;;;;;;;5092181;28;19955;-61
2021/11/02 18:49:27;;;;;;;;;;;;;;;;;;5086687;28;19925;-61
2021/11/02 18:51:54;;;;;;;;;;;;;;;;;;5086053;28;20001;-60
2021/11/02 18:54:22;;;;;;;;;;;;;;;;;;5084325;28;19956;-60
2021/11/02 18:56:49;;;;;;;;;;;;;;;;;;5091751;28;19950;-60
2021/11/02 18:59:16;;;;;;;;;;;;;;;;;;5092104;28;19924;-61
2021/11/02 19:01:44;;;;;;;;;;;;;;;;;;5086791;28;19924;-59
2021/11/02 19:04:11;;;;;;;;;;;;;;;;;;5094202;28;19929;-61
2021/11/02 19:06:39;;;;;;;;;;;;;;;;;;5097816;28;20011;-61
2021/11/02 19:09:06;;;;;;;;;;;;;;;;;;5087291;28;19924;-60
2021/11/02 19:11:33;;;;;;;;;;;;;;;;;;5086722;28;20452;-61
2021/11/02 19:14:02;;;;;;;;;;;;;;;;;;5084032;28;19924;-61
2021/11/02 19:16:29;;;;;;;;;;;;;;;;;;5092257;28;19956;-60
2021/11/02 19:18:56;;;;;;;;;;;;;;;;;;5082453;28;19994;-62
2021/11/02 19:21:23;;;;;;;;;;;;;;;;;;5080175;28;19924;-56
2021/11/02 19:23:50;;;;;;;;;;;;;;;;;;5083005;28;20023;-59
2021/11/02 19:26:17;;;;;;;;;;;;;;;;;;5087243;28;20338;-59
2021/11/02 19:28:44;;;;;;;;;;;;;;;;;;5085921;28;19978;-59
2021/11/02 19:31:11;;;;;;;;;;;;;;;;;;5083956;28;19932;-59
2021/11/02 19:33:38;;;;;;;;;;;;;;;;;;5084680;28;19924;-60
2021/11/02 19:36:05;;;;;;;;;;;;;;;;;;5081796;28;20368;-57
2021/11/02 19:38:32;;;;;;;;;;;;;;;;;;5080925;28;20102;-60
2021/11/02 19:40:59;;;;;;;;;;;;;;;;;;5082389;28;19924;-61
2021/11/02 19:43:26;;;;;;;;;;;;;;;;;;5084580;28;19924;-61
2021/11/02 19:45:54;;;;;;;;;;;;;;;;;;5080550;28;19924;-61
2021/11/02 19:48:21;;;;;;;;;;;;;;;;;;5083421;28;19924;-61
2021/11/02 19:50:48;;;;;;;;;;;;;;;;;;5081556;28;20028;-60
2021/11/02 19:53:20;;;;;;;;;;;;;;;;;;5085251;28;20015;-60
2021/11/02 19:55:47;;;;;;;;;;;;;;;;;;5079460;28;19977;-61
2021/11/02 19:58:14;;;;;;;;;;;;;;;;;;5083138;28;19930;-60
2021/11/02 20:00:41;;;;;;;;;;;;;;;;;;5083672;28;20018;-60
2021/11/02 20:03:08;;;;;;;;;;;;;;;;;;5082020;28;19929;-59
2021/11/02 20:05:35;;;;;;;;;;;;;;;;;;5083414;28;19924;-59
2021/11/02 20:08:02;;;;;;;;;;;;;;;;;;5083404;28;19947;-60
2021/11/02 20:10:29;;;;;;;;;;;;;;;;;;5083172;28;19935;-58
2021/11/02 20:12:56;;;;;;;;;;;;;;;;;;5081908;28;20252;-60
2021/11/02 20:15:23;;;;;;;;;;;;;;;;;;5084986;28;19966;-60
2021/11/02 20:17:50;;;;;;;;;;;;;;;;;;5083286;28;19927;-61
2021/11/02 20:20:17;;;;;;;;;;;;;;;;;;5082675;28;19924;-59
2021/11/02 20:22:44;;;;;;;;;;;;;;;;;;5081204;28;19928;-60
2021/11/02 20:25:11;;;;;;;;;;;;;;;;;;5082731;28;20365;-61
2021/11/02 20:27:39;;;;;;;;;;;;;;;;;;5063985;28;20059;-60
2021/11/02 20:30:06;;;;;;;;;;;;;;;;;;5085258;28;20432;-60
2021/11/02 20:32:33;;;;;;;;;;;;;;;;;;5082740;28;19979;-58
2021/11/02 20:35:00;;;;;;;;;;;;;;;;;;5079803;28;19950;-60
2021/11/02 20:37:27;;;;;;;;;;;;;;;;;;5083028;28;20057;-61
2021/11/02 20:39:54;;;;;;;;;;;;;;;;;;5083861;28;19924;-60
2021/11/02 20:42:21;;;;;;;;;;;;;;;;;;5084183;28;19925;-59
2021/11/02 20:44:48;;;;;;;;;;;;;;;;;;5082398;28;19924;-59
2021/11/02 20:47:15;;;;;;;;;;;;;;;;;;5081845;28;20014;-60
2021/11/02 20:49:42;;;;;;;;;;;;;;;;;;5080985;28;19930;-62
2021/11/02 20:52:09;;;;;;;;;;;;;;;;;;5084327;28;19967;-60
2021/11/02 20:54:38;;;;;;;;;;;;;;;;;;5081166;28;19944;-63
2021/11/02 20:57:05;;;;;;;;;;;;;;;;;;5082871;28;20388;-60
2021/11/02 20:59:32;;;;;;;;;;;;;;;;;;5085144;28;20066;-62